sensor_id;sensor_type;location;lat;lon;timestamp;pressure;altitude;pressure_sealevel;temperature;humidity
70521;BME280;58442;52.716;23.560;2023-07-13T01:56:09;100871.83;;;19.57;68.71
70521;BME280;58442;52.716;23.560;2023-07-13T01:58:10;100863.13;;;19.55;68.73
70521;BME280;58442;52.716;23.560;2023-07-13T02:00:14;100865.51;;;19.53;68.76
70521;BME280;58442;52.716;23.560;2023-07-13T02:02:15;100874.60;;;19.50;68.75
70521;BME280;58442;52.716;23.560;2023-07-13T02:04:17;100879.34;;;19.50;68.69
70521;BME280;58442;52.716;23.560;2023-07-13T02:06:18;100881.69;;;19.48;68.62
70521;BME280;58442;52.716;23.560;2023-07-13T02:08:28;100884.86;;;19.46;68.56
70521;BME280;58442;52.716;23.560;2023-07-13T02:10:29;100875.80;;;19.46;68.61
70521;BME280;58442;52.716;23.560;2023-07-13T06:04:47;101047.05;;;20.32;72.42
70521;BME280;58442;52.716;23.560;2023-07-13T06:06:48;101054.09;;;20.36;72.23
70521;BME280;58442;52.716;23.560;2023-07-13T06:08:51;101057.61;;;20.40;72.08
70521;BME280;58442;52.716;23.560;2023-07-13T06:10:52;101063.91;;;20.44;71.92
70521;BME280;58442;52.716;23.560;2023-07-13T06:12:53;101073.73;;;20.49;71.71
70521;BME280;58442;52.716;23.560;2023-07-13T06:14:55;101075.30;;;20.54;71.52
70521;BME280;58442;52.716;23.560;2023-07-13T06:17:05;101068.52;;;20.58;71.32
70521;BME280;58442;52.716;23.560;2023-07-13T06:19:07;101072.04;;;20.66;71.14
70521;BME280;58442;52.716;23.560;2023-07-13T06:21:14;101065.25;;;20.74;70.90
70521;BME280;58442;52.716;23.560;2023-07-13T06:23:16;101081.34;;;20.83;70.69
70521;BME280;58442;52.716;23.560;2023-07-13T06:25:20;101075.32;;;20.91;70.55
70521;BME280;58442;52.716;23.560;2023-07-13T06:27:21;101085.51;;;21.01;70.27
70521;BME280;58442;52.716;23.560;2023-07-13T06:29:23;101081.88;;;21.08;70.00
70521;BME280;58442;52.716;23.560;2023-07-13T06:31:24;101081.39;;;21.17;69.77
70521;BME280;58442;52.716;23.560;2023-07-13T06:33:35;101068.64;;;21.26;69.52
70521;BME280;58442;52.716;23.560;2023-07-13T06:35:37;101067.35;;;21.38;69.21
70521;BME280;58442;52.716;23.560;2023-07-13T06:37:39;101067.24;;;21.49;68.87
70521;BME280;58442;52.716;23.560;2023-07-13T06:39:40;101071.02;;;21.62;68.56
70521;BME280;58442;52.716;23.560;2023-07-13T06:41:49;101064.88;;;21.78;68.21
70521;BME280;58442;52.716;23.560;2023-07-13T06:43:51;101060.24;;;21.98;67.82
70521;BME280;58442;52.716;23.560;2023-07-13T06:45:55;101058.70;;;22.24;67.37
70521;BME280;58442;52.716;23.560;2023-07-13T06:47:57;101055.31;;;22.36;67.09
70521;BME280;58442;52.716;23.560;2023-07-13T06:50:05;101062.62;;;22.50;66.87
70521;BME280;58442;52.716;23.560;2023-07-13T06:52:06;101068.42;;;22.59;66.63
70521;BME280;58442;52.716;23.560;2023-07-13T06:54:08;101067.87;;;22.68;66.36
70521;BME280;58442;52.716;23.560;2023-07-13T06:56:10;101082.46;;;22.72;66.19
70521;BME280;58442;52.716;23.560;2023-07-13T06:58:20;101074.06;;;22.76;66.01
70521;BME280;58442;52.716;23.560;2023-07-13T07:00:21;101069.66;;;22.78;65.76
70521;BME280;58442;52.716;23.560;2023-07-13T07:02:23;101065.70;;;22.79;65.48
70521;BME280;58442;52.716;23.560;2023-07-13T07:04:24;101053.75;;;22.82;65.31
70521;BME280;58442;52.716;23.560;2023-07-13T07:06:33;101048.11;;;22.89;65.12
70521;BME280;58442;52.716;23.560;2023-07-13T07:08:35;101045.63;;;22.95;64.68
70521;BME280;58442;52.716;23.560;2023-07-13T07:10:36;101044.36;;;23.00;64.50
70521;BME280;58442;52.716;23.560;2023-07-13T07:12:38;101041.08;;;23.05;64.29
70521;BME280;58442;52.716;23.560;2023-07-13T07:14:48;101037.77;;;23.13;64.04
70521;BME280;58442;52.716;23.560;2023-07-13T07:16:50;101024.88;;;23.23;63.82
70521;BME280;58442;52.716;23.560;2023-07-13T07:18:51;101030.23;;;23.34;63.35
70521;BME280;58442;52.716;23.560;2023-07-13T07:21:19;101048.62;;;23.44;62.96
70521;BME280;58442;52.716;23.560;2023-07-13T07:23:20;101060.35;;;23.52;62.73
70521;BME280;58442;52.716;23.560;2023-07-13T07:25:21;101068.84;;;23.64;62.45
70521;BME280;58442;52.716;23.560;2023-07-13T07:27:33;101062.54;;;23.80;62.10
70521;BME280;58442;52.716;23.560;2023-07-13T07:29:34;101058.26;;;23.95;61.79
70521;BME280;58442;52.716;23.560;2023-07-13T07:31:36;101062.70;;;24.09;61.54
70521;BME280;58442;52.716;23.560;2023-07-13T07:33:38;101054.02;;;24.23;61.33
70521;BME280;58442;52.716;23.560;2023-07-13T07:35:48;101044.15;;;24.39;61.00
70521;BME280;58442;52.716;23.560;2023-07-13T07:37:49;101050.13;;;24.53;60.55
70521;BME280;58442;52.716;23.560;2023-07-13T07:39:51;101052.98;;;24.66;60.19
70521;BME280;58442;52.716;23.560;2023-07-13T07:41:53;101055.05;;;24.78;59.91
70521;BME280;58442;52.716;23.560;2023-07-13T07:44:03;101043.54;;;24.93;59.50
70521;BME280;58442;52.716;23.560;2023-07-13T07:46:04;101039.95;;;25.08;59.01
70521;BME280;58442;52.716;23.560;2023-07-13T07:48:06;101043.51;;;25.09;58.81
70521;BME280;58442;52.716;23.560;2023-07-13T07:50:10;101046.46;;;25.02;58.69
70521;BME280;58442;52.716;23.560;2023-07-13T07:52:17;101048.99;;;24.96;58.63
70521;BME280;58442;52.716;23.560;2023-07-13T07:54:19;101048.99;;;24.96;58.39
70521;BME280;58442;52.716;23.560;2023-07-13T07:56:20;101055.17;;;25.04;58.07
70521;BME280;58442;52.716;23.560;2023-07-13T07:58:21;101050.19;;;25.12;57.80
70521;BME280;58442;52.716;23.560;2023-07-13T08:00:32;101048.79;;;25.20;57.75
70521;BME280;58442;52.716;23.560;2023-07-13T08:02:33;101055.91;;;25.21;57.54
70521;BME280;58442;52.716;23.560;2023-07-13T08:04:35;101053.83;;;25.37;57.11
70521;BME280;58442;52.716;23.560;2023-07-13T08:06:36;101055.75;;;25.41;57.14
70521;BME280;58442;52.716;23.560;2023-07-13T10:23:57;101006.93;;;29.98;41.77
70521;BME280;58442;52.716;23.560;2023-07-13T10:26:15;101002.67;;;30.12;41.57
70521;BME280;58442;52.716;23.560;2023-07-13T10:28:25;101002.44;;;30.25;41.49
70521;BME280;58442;52.716;23.560;2023-07-13T10:30:32;100991.59;;;30.42;41.28
70521;BME280;58442;52.716;23.560;2023-07-13T10:32:39;100996.34;;;30.50;41.18
70521;BME280;58442;52.716;23.560;2023-07-13T10:34:44;100990.93;;;30.23;41.54
70521;BME280;58442;52.716;23.560;2023-07-13T10:36:48;100991.18;;;30.34;41.24
70521;BME280;58442;52.716;23.560;2023-07-13T10:38:51;100991.62;;;30.09;41.62
70521;BME280;58442;52.716;23.560;2023-07-13T10:41:02;100985.12;;;30.03;41.62
70521;BME280;58442;52.716;23.560;2023-07-13T10:45:23;100986.88;;;29.91;41.38
70521;BME280;58442;52.716;23.560;2023-07-13T10:47:26;100991.30;;;29.83;41.38
70521;BME280;58442;52.716;23.560;2023-07-13T10:49:29;100983.79;;;29.89;41.28
70521;BME280;58442;52.716;23.560;2023-07-13T10:51:32;100985.63;;;29.92;41.10
70521;BME280;58442;52.716;23.560;2023-07-13T16:04:54;101045.84;;;25.52;46.17
